sensor_id;sensor_type;location;lat;lon;timestamp;P1;durP1;ratioP1;P2;durP2;ratioP2
15498;SDS011;7851;52.260;6.030;2023-07-31T00:04:12;0.8;;;0.8;;
15498;SDS011;7851;52.260;6.030;2023-07-31T00:04:12;0.8;;;0.8;;
15498;SDS011;7851;52.260;6.030;2023-07-31T00:04:12;0.7;;;0.7;;
15498;SDS011;7851;52.260;6.030;2023-07-31T00:04:12;0.9;;;0.9;;
15498;SDS011;7851;52.260;6.030;2023-07-31T00:04:57;1;;;1;;
15498;SDS011;7851;52.260;6.030;2023-07-31T00:05:57;0.9;;;0.9;;
15498;SDS011;7851;52.260;6.030;2023-07-31T00:06:57;0.8;;;0.8;;
15498;SDS011;7851;52.260;6.030;2023-07-31T00:07:57;1;;;1;;
15498;SDS011;7851;52.260;6.030;2023-07-31T00:08:57;0.8;;;0.8;;
15498;SDS011;7851;52.260;6.030;2023-07-31T00:09:57;0.6;;;0.6;;
15498;SDS011;7851;52.260;6.030;2023-07-31T00:10:57;0.5;;;0.5;;
15498;SDS011;7851;52.260;6.030;2023-07-31T00:11:57;0.6;;;0.6;;
15498;SDS011;7851;52.260;6.030;2023-07-31T00:12:57;0.8;;;0.8;;
15498;SDS011;7851;52.260;6.030;2023-07-31T00:13:57;0.8;;;0.8;;
15498;SDS011;7851;52.260;6.030;2023-07-31T00:14:57;0.5;;;0.5;;
15498;SDS011;7851;52.260;6.030;2023-07-31T00:15:57;1.4;;;0.9;;
15498;SDS011;7851;52.260;6.030;2023-07-31T00:16:57;1;;;1;;
15498;SDS011;7851;52.260;6.030;2023-07-31T00:17:57;0.6;;;0.6;;
15498;SDS011;7851;52.260;6.030;2023-07-31T00:18:57;0.9;;;0.9;;
15498;SDS011;7851;52.260;6.030;2023-07-31T00:19:57;0.8;;;0.8;;
15498;SDS011;7851;52.260;6.030;2023-07-31T00:20:57;0.6;;;0.6;;
15498;SDS011;7851;52.260;6.030;2023-07-31T00:21:57;0.9;;;0.9;;
15498;SDS011;7851;52.260;6.030;2023-07-31T00:22:57;0.8;;;0.8;;
15498;SDS011;7851;52.260;6.030;2023-07-31T00:23:57;0.6;;;0.6;;
15498;SDS011;7851;52.260;6.030;2023-07-31T00:24:57;0.7;;;0.7;;
15498;SDS011;7851;52.260;6.030;2023-07-31T00:25:57;0.7;;;0.7;;
15498;SDS011;7851;52.260;6.030;2023-07-31T00:26:57;0.5;;;0.5;;
15498;SDS011;7851;52.260;6.030;2023-07-31T00:27:57;0.7;;;0.7;;
15498;SDS011;7851;52.260;6.030;2023-07-31T00:28:57;0.6;;;0.6;;
15498;SDS011;7851;52.260;6.030;2023-07-31T00:29:57;0.6;;;0.6;;
15498;SDS011;7851;52.260;6.030;2023-07-31T00:30:57;0.7;;;0.7;;
15498;SDS011;7851;52.260;6.030;2023-07-31T00:31:57;0.7;;;0.7;;
15498;SDS011;7851;52.260;6.030;2023-07-31T00:32:57;0.6;;;0.6;;
15498;SDS011;7851;52.260;6.030;2023-07-31T00:33:57;0.6;;;0.6;;
15498;SDS011;7851;52.260;6.030;2023-07-31T00:34:57;1.3;;;0.7;;
15498;SDS011;7851;52.260;6.030;2023-07-31T00:35:57;0.7;;;0.7;;
15498;SDS011;7851;52.260;6.030;2023-07-31T00:36:57;0.7;;;0.7;;
15498;SDS011;7851;52.260;6.030;2023-07-31T00:37:57;0.6;;;0.6;;
15498;SDS011;7851;52.260;6.030;2023-07-31T00:38:57;0.8;;;0.8;;
15498;SDS011;7851;52.260;6.030;2023-07-31T00:39:57;0.7;;;0.7;;
15498;SDS011;7851;52.260;6.030;2023-07-31T00:40:57;0.5;;;0.5;;
15498;SDS011;7851;52.260;6.030;2023-07-31T00:41:57;0.9;;;0.8;;
15498;SDS011;7851;52.260;6.030;2023-07-31T00:42:57;0.7;;;0.7;;
15498;SDS011;7851;52.260;6.030;2023-07-31T00:43:57;0.6;;;0.6;;
15498;SDS011;7851;52.260;6.030;2023-07-31T00:44:57;0.7;;;0.7;;
15498;SDS011;7851;52.260;6.030;2023-07-31T00:45:57;0.6;;;0.6;;
15498;SDS011;7851;52.260;6.030;2023-07-31T00:46:57;0.8;;;0.8;;
15498;SDS011;7851;52.260;6.030;2023-07-31T00:47:57;0.6;;;0.6;;
15498;SDS011;7851;52.260;6.030;2023-07-31T00:48:57;0.8;;;0.8;;
15498;SDS011;7851;52.260;6.030;2023-07-31T00:49:57;0.7;;;0.7;;
15498;SDS011;7851;52.260;6.030;2023-07-31T00:50:57;0.9;;;0.9;;
15498;SDS011;7851;52.260;6.030;2023-07-31T00:51:57;0.7;;;0.7;;
15498;SDS011;7851;52.260;6.030;2023-07-31T00:52:57;0.6;;;0.6;;
15498;SDS011;7851;52.260;6.030;2023-07-31T00:53:57;1;;;0.7;;
15498;SDS011;7851;52.260;6.030;2023-07-31T00:54:57;0.7;;;0.7;;
15498;SDS011;7851;52.260;6.030;2023-07-31T00:55:57;0.8;;;0.8;;
15498;SDS011;7851;52.260;6.030;2023-07-31T00:56:57;0.9;;;0.9;;
15498;SDS011;7851;52.260;6.030;2023-07-31T00:57:57;0.7;;;0.7;;
15498;SDS011;7851;52.260;6.030;2023-07-31T00:58:57;0.8;;;0.8;;
15498;SDS011;7851;52.260;6.030;2023-07-31T00:59:57;0.7;;;0.7;;
15498;SDS011;7851;52.260;6.030;2023-07-31T01:00:57;1;;;1;;
15498;SDS011;7851;52.260;6.030;2023-07-31T01:01:57;0.7;;;0.7;;
15498;SDS011;7851;52.260;6.030;2023-07-31T01:02:57;1.1;;;0.7;;
15498;SDS011;7851;52.260;6.030;2023-07-31T01:03:57;0.9;;;0.9;;
15498;SDS011;7851;52.260;6.030;2023-07-31T01:04:57;0.7;;;0.7;;
15498;SDS011;7851;52.260;6.030;2023-07-31T01:06:00;1;;;1;;
15498;SDS011;7851;52.260;6.030;2023-07-31T01:06:59;0.9;;;0.9;;
15498;SDS011;7851;52.260;6.030;2023-07-31T01:07:59;0.8;;;0.8;;
15498;SDS011;7851;52.260;6.030;2023-07-31T01:08:59;0.8;;;0.8;;
15498;SDS011;7851;52.260;6.030;2023-07-31T01:09:59;0.8;;;0.8;;
15498;SDS011;7851;52.260;6.030;2023-07-31T01:11:00;1.2;;;0.8;;
15498;SDS011;7851;52.260;6.030;2023-07-31T01:11:57;0.9;;;0.9;;
15498;SDS011;7851;52.260;6.030;2023-07-31T01:12:57;1;;;1;;
15498;SDS011;7851;52.260;6.030;2023-07-31T01:13:57;1;;;1;;
15498;SDS011;7851;52.260;6.030;2023-07-31T01:15:05;2;;;1;;
15498;SDS011;7851;52.260;6.030;2023-07-31T01:15:57;0.9;;;0.9;;
15498;SDS011;7851;52.260;6.030;2023-07-31T01:16:57;0.7;;;0.7;;
15498;SDS011;7851;52.260;6.030;2023-07-31T01:17:57;0.9;;;0.9;;
15498;SDS011;7851;52.260;6.030;2023-07-31T01:18:57;1;;;1;;
15498;SDS011;7851;52.260;6.030;2023-07-31T01:19:59;0.7;;;0.7;;
15498;SDS011;7851;52.260;6.030;2023-07-31T01:20:58;0.9;;;0.9;;
15498;SDS011;7851;52.260;6.030;2023-07-31T01:22:01;0.9;;;0.9;;
15498;SDS011;7851;52.260;6.030;2023-07-31T01:23:03;1.1;;;1;;
15498;SDS011;7851;52.260;6.030;2023-07-31T01:24:04;0.7;;;0.7;;
15498;SDS011;7851;52.260;6.030;2023-07-31T01:25:00;1;;;1;;
15498;SDS011;7851;52.260;6.030;2023-07-31T01:26:00;1;;;1;;
15498;SDS011;7851;52.260;6.030;2023-07-31T01:26:57;0.9;;;0.9;;
15498;SDS011;7851;52.260;6.030;2023-07-31T01:27:59;1.2;;;0.9;;
15498;SDS011;7851;52.260;6.030;2023-07-31T01:28:59;1.3;;;1.2;;
15498;SDS011;7851;52.260;6.030;2023-07-31T01:29:59;1.4;;;1.3;;
15498;SDS011;7851;52.260;6.030;2023-07-31T01:30:57;3.3;;;1.2;;
15498;SDS011;7851;52.260;6.030;2023-07-31T01:31:57;1.1;;;1;;
15498;SDS011;7851;52.260;6.030;2023-07-31T01:32:57;1;;;1;;
15498;SDS011;7851;52.260;6.030;2023-07-31T01:33:59;1;;;1;;
15498;SDS011;7851;52.260;6.030;2023-07-31T01:34:57;1.6;;;1.5;;
15498;SDS011;7851;52.260;6.030;2023-07-31T01:35:57;1.3;;;1.2;;
15498;SDS011;7851;52.260;6.030;2023-07-31T01:36:57;1.2;;;1.2;;
15498;SDS011;7851;52.260;6.030;2023-07-31T01:37:57;1.3;;;1.3;;
15498;SDS011;7851;52.260;6.030;2023-07-31T01:38:57;1.6;;;1.5;;
15498;SDS011;7851;52.260;6.030;2023-07-31T01:39:57;1.7;;;1.6;;
15498;SDS011;7851;52.260;6.030;2023-07-31T01:40:57;2.4;;;1.7;;
15498;SDS011;7851;52.260;6.030;2023-07-31T01:41:57;1.4;;;1.4;;
15498;SDS011;7851;52.260;6.030;2023-07-31T01:42:57;1.5;;;1.5;;
15498;SDS011;7851;52.260;6.030;2023-07-31T01:43:57;1.3;;;1.3;;
15498;SDS011;7851;52.260;6.030;2023-07-31T01:44:57;1.6;;;1.5;;
15498;SDS011;7851;52.260;6.030;2023-07-31T01:45:57;2;;;1.5;;
15498;SDS011;7851;52.260;6.030;2023-07-31T01:46:57;1.8;;;1.2;;
15498;SDS011;7851;52.260;6.030;2023-07-31T01:47:57;1.6;;;1.5;;
15498;SDS011;7851;52.260;6.030;2023-07-31T01:48:57;1.4;;;1.4;;
15498;SDS011;7851;52.260;6.030;2023-07-31T01:49:57;1.5;;;1.5;;
15498;SDS011;7851;52.260;6.030;2023-07-31T01:51:00;1.4;;;1.4;;
15498;SDS011;7851;52.260;6.030;2023-07-31T01:51:57;1.4;;;1.3;;
15498;SDS011;7851;52.260;6.030;2023-07-31T01:52:57;1.8;;;1.7;;
15498;SDS011;7851;52.260;6.030;2023-07-31T01:53:57;1.8;;;1.6;;
15498;SDS011;7851;52.260;6.030;2023-07-31T01:54:57;1.9;;;1.8;;
15498;SDS011;7851;52.260;6.030;2023-07-31T01:55:57;1.5;;;1.4;;
15498;SDS011;7851;52.260;6.030;2023-07-31T01:56:57;1.5;;;1.5;;
15498;SDS011;7851;52.260;6.030;2023-07-31T01:57:57;1.5;;;1.1;;
15498;SDS011;7851;52.260;6.030;2023-07-31T01:58:57;1.5;;;1.5;;
15498;SDS011;7851;52.260;6.030;2023-07-31T01:59:57;1.5;;;1.4;;
15498;SDS011;7851;52.260;6.030;2023-07-31T02:00:57;2.5;;;1.6;;
15498;SDS011;7851;52.260;6.030;2023-07-31T02:01:57;1.7;;;1.6;;
15498;SDS011;7851;52.260;6.030;2023-07-31T02:02:57;1.8;;;1.6;;
15498;SDS011;7851;52.260;6.030;2023-07-31T02:03:57;1.6;;;1.6;;
15498;SDS011;7851;52.260;6.030;2023-07-31T02:04:57;2;;;1.9;;
15498;SDS011;7851;52.260;6.030;2023-07-31T02:05:57;2.3;;;2.1;;
15498;SDS011;7851;52.260;6.030;2023-07-31T02:06:57;3.2;;;1.7;;
15498;SDS011;7851;52.260;6.030;2023-07-31T02:07:57;2;;;1.7;;
15498;SDS011;7851;52.260;6.030;2023-07-31T02:08:57;2;;;1.9;;
15498;SDS011;7851;52.260;6.030;2023-07-31T02:09:57;1.6;;;1.5;;
15498;SDS011;7851;52.260;6.030;2023-07-31T02:10:57;2.1;;;1.9;;
15498;SDS011;7851;52.260;6.030;2023-07-31T02:11:57;2.5;;;2;;
15498;SDS011;7851;52.260;6.030;2023-07-31T02:12:57;2.4;;;2.2;;
15498;SDS011;7851;52.260;6.030;2023-07-31T02:13:57;1.6;;;1.6;;
15498;SDS011;7851;52.260;6.030;2023-07-31T02:14:57;2.2;;;2;;
15498;SDS011;7851;52.260;6.030;2023-07-31T02:15:57;2.2;;;2.1;;
15498;SDS011;7851;52.260;6.030;2023-07-31T02:16:57;3;;;2.1;;
15498;SDS011;7851;52.260;6.030;2023-07-31T02:17:57;2;;;1.9;;
15498;SDS011;7851;52.260;6.030;2023-07-31T02:18:57;2.3;;;2.2;;
15498;SDS011;7851;52.260;6.030;2023-07-31T02:19:57;1.8;;;1.7;;
15498;SDS011;7851;52.260;6.030;2023-07-31T02:20:57;2.4;;;2.2;;
15498;SDS011;7851;52.260;6.030;2023-07-31T02:21:57;2.1;;;2;;
15498;SDS011;7851;52.260;6.030;2023-07-31T02:22:57;1.9;;;1.9;;
15498;SDS011;7851;52.260;6.030;2023-07-31T02:23:57;1.9;;;1.8;;
15498;SDS011;7851;52.260;6.030;2023-07-31T02:24:57;3.1;;;1.9;;
15498;SDS011;7851;52.260;6.030;2023-07-31T02:25:57;2.5;;;2.3;;
15498;SDS011;7851;52.260;6.030;2023-07-31T02:26:57;1.9;;;1.8;;
15498;SDS011;7851;52.260;6.030;2023-07-31T02:27:57;3.8;;;2.2;;
15498;SDS011;7851;52.260;6.030;2023-07-31T02:28:57;3.1;;;2.1;;
15498;SDS011;7851;52.260;6.030;2023-07-31T02:29:57;2.8;;;2.4;;
15498;SDS011;7851;52.260;6.030;2023-07-31T02:30:57;2.6;;;2.4;;
15498;SDS011;7851;52.260;6.030;2023-07-31T02:31:57;2.6;;;2.3;;
15498;SDS011;7851;52.260;6.030;2023-07-31T02:32:57;2.8;;;2.6;;
15498;SDS011;7851;52.260;6.030;2023-07-31T02:33:57;2.4;;;2.2;;
15498;SDS011;7851;52.260;6.030;2023-07-31T02:34:57;2.4;;;2.2;;
15498;SDS011;7851;52.260;6.030;2023-07-31T02:35:57;3.1;;;2.6;;
15498;SDS011;7851;52.260;6.030;2023-07-31T02:36:57;2.8;;;2.5;;
15498;SDS011;7851;52.260;6.030;2023-07-31T02:37:57;2.2;;;2.1;;
15498;SDS011;7851;52.260;6.030;2023-07-31T02:38:57;2.2;;;2.1;;
15498;SDS011;7851;52.260;6.030;2023-07-31T02:39:57;2.4;;;2.2;;
15498;SDS011;7851;52.260;6.030;2023-07-31T02:40:57;2.1;;;2;;
15498;SDS011;7851;52.260;6.030;2023-07-31T02:41:57;3.5;;;2.1;;
15498;SDS011;7851;52.260;6.030;2023-07-31T02:42:57;2.3;;;2.1;;
15498;SDS011;7851;52.260;6.030;2023-07-31T02:43:57;2;;;1.9;;
15498;SDS011;7851;52.260;6.030;2023-07-31T02:44:57;1.9;;;1.8;;
15498;SDS011;7851;52.260;6.030;2023-07-31T02:45:57;2.8;;;2.2;;
15498;SDS011;7851;52.260;6.030;2023-07-31T02:46:57;2;;;1.9;;
15498;SDS011;7851;52.260;6.030;2023-07-31T02:47:57;2.6;;;2.4;;
15498;SDS011;7851;52.260;6.030;2023-07-31T02:48:57;7.7;;;2.9;;
15498;SDS011;7851;52.260;6.030;2023-07-31T02:49:57;2.5;;;2.3;;
15498;SDS011;7851;52.260;6.030;2023-07-31T02:50:57;3.5;;;2.8;;
15498;SDS011;7851;52.260;6.030;2023-07-31T02:51:57;2.8;;;2.5;;
15498;SDS011;7851;52.260;6.030;2023-07-31T02:52:57;3.6;;;2.6;;
15498;SDS011;7851;52.260;6.030;2023-07-31T02:53:57;3.9;;;2.6;;
15498;SDS011;7851;52.260;6.030;2023-07-31T02:54:57;3.2;;;2.9;;
15498;SDS011;7851;52.260;6.030;2023-07-31T02:55:57;3.4;;;3.1;;
15498;SDS011;7851;52.260;6.030;2023-07-31T02:56:57;6.6;;;3.6;;
15498;SDS011;7851;52.260;6.030;2023-07-31T02:57:57;3.3;;;3;;
15498;SDS011;7851;52.260;6.030;2023-07-31T02:58:57;6.4;;;3.3;;
15498;SDS011;7851;52.260;6.030;2023-07-31T02:59:57;3.8;;;3.4;;
15498;SDS011;7851;52.260;6.030;2023-07-31T03:00:57;7.5;;;3.9;;
15498;SDS011;7851;52.260;6.030;2023-07-31T03:01:57;5.8;;;3.8;;
15498;SDS011;7851;52.260;6.030;2023-07-31T03:02:57;4.1;;;3.6;;
15498;SDS011;7851;52.260;6.030;2023-07-31T03:03:57;5.1;;;3.8;;
15498;SDS011;7851;52.260;6.030;2023-07-31T03:04:57;5.8;;;3.6;;
15498;SDS011;7851;52.260;6.030;2023-07-31T03:05:57;4.6;;;3.9;;
15498;SDS011;7851;52.260;6.030;2023-07-31T03:06:57;8.1;;;4.2;;
15498;SDS011;7851;52.260;6.030;2023-07-31T03:07:57;6;;;4.3;;
15498;SDS011;7851;52.260;6.030;2023-07-31T03:08:57;5.8;;;4.1;;
15498;SDS011;7851;52.260;6.030;2023-07-31T03:09:57;5.8;;;4.1;;
15498;SDS011;7851;52.260;6.030;2023-07-31T03:10:57;6.7;;;4.8;;
15498;SDS011;7851;52.260;6.030;2023-07-31T03:11:57;8.3;;;5;;
15498;SDS011;7851;52.260;6.030;2023-07-31T03:12:57;8;;;5.4;;
15498;SDS011;7851;52.260;6.030;2023-07-31T03:13:57;6.1;;;4.8;;
15498;SDS011;7851;52.260;6.030;2023-07-31T03:14:57;5.2;;;4.7;;
15498;SDS011;7851;52.260;6.030;2023-07-31T03:15:57;5.7;;;4.2;;
15498;SDS011;7851;52.260;6.030;2023-07-31T03:16:57;7.9;;;5.4;;
15498;SDS011;7851;52.260;6.030;2023-07-31T03:17:57;8.7;;;4.9;;
15498;SDS011;7851;52.260;6.030;2023-07-31T03:18:57;11.5;;;6.1;;
15498;SDS011;7851;52.260;6.030;2023-07-31T03:19:57;9.7;;;5.4;;
15498;SDS011;7851;52.260;6.030;2023-07-31T03:20:57;15.7;;;6.1;;
15498;SDS011;7851;52.260;6.030;2023-07-31T03:21:57;9.6;;;6.1;;
15498;SDS011;7851;52.260;6.030;2023-07-31T03:22:57;8.4;;;5.3;;
15498;SDS011;7851;52.260;6.030;2023-07-31T03:23:57;11.7;;;6.1;;
15498;SDS011;7851;52.260;6.030;2023-07-31T03:24:57;9.3;;;5.8;;
15498;SDS011;7851;52.260;6.030;2023-07-31T03:25:57;10.3;;;6.1;;
15498;SDS011;7851;52.260;6.030;2023-07-31T03:26:57;9.1;;;5.6;;
15498;SDS011;7851;52.260;6.030;2023-07-31T03:27:57;10.5;;;6.1;;
15498;SDS011;7851;52.260;6.030;2023-07-31T03:28:57;12;;;6.3;;
15498;SDS011;7851;52.260;6.030;2023-07-31T03:29:57;8.7;;;6.1;;
15498;SDS011;7851;52.260;6.030;2023-07-31T03:30:57;12.2;;;6.3;;
15498;SDS011;7851;52.260;6.030;2023-07-31T03:31:57;14.3;;;6;;
15498;SDS011;7851;52.260;6.030;2023-07-31T03:32:57;9;;;6.1;;
15498;SDS011;7851;52.260;6.030;2023-07-31T03:33:57;9;;;6.4;;
15498;SDS011;7851;52.260;6.030;2023-07-31T03:34:57;9.1;;;6;;
15498;SDS011;7851;52.260;6.030;2023-07-31T03:35:57;14.9;;;6.3;;
15498;SDS011;7851;52.260;6.030;2023-07-31T03:36:57;10.7;;;6.2;;
15498;SDS011;7851;52.260;6.030;2023-07-31T03:37:57;6.7;;;5;;
15498;SDS011;7851;52.260;6.030;2023-07-31T03:38:57;10;;;6.8;;
15498;SDS011;7851;52.260;6.030;2023-07-31T03:39:57;8.8;;;5.8;;
15498;SDS011;7851;52.260;6.030;2023-07-31T03:40:57;9.2;;;6;;
15498;SDS011;7851;52.260;6.030;2023-07-31T03:41:57;7.8;;;5.8;;
15498;SDS011;7851;52.260;6.030;2023-07-31T03:42:57;7.2;;;5.8;;
15498;SDS011;7851;52.260;6.030;2023-07-31T03:43:57;8.8;;;6.1;;
15498;SDS011;7851;52.260;6.030;2023-07-31T03:44:57;9;;;5.6;;
15498;SDS011;7851;52.260;6.030;2023-07-31T03:45:57;11.6;;;6.2;;
15498;SDS011;7851;52.260;6.030;2023-07-31T03:46:57;15.1;;;7.5;;
15498;SDS011;7851;52.260;6.030;2023-07-31T03:47:57;8.7;;;5.8;;
15498;SDS011;7851;52.260;6.030;2023-07-31T03:48:57;7.7;;;6.1;;
15498;SDS011;7851;52.260;6.030;2023-07-31T03:49:57;10;;;5.8;;
15498;SDS011;7851;52.260;6.030;2023-07-31T03:50:57;14.4;;;6.9;;
15498;SDS011;7851;52.260;6.030;2023-07-31T03:51:57;12.6;;;6.3;;
15498;SDS011;7851;52.260;6.030;2023-07-31T03:52:57;16.4;;;6.4;;
15498;SDS011;7851;52.260;6.030;2023-07-31T03:53:57;14.8;;;7.1;;
15498;SDS011;7851;52.260;6.030;2023-07-31T03:54:57;11.8;;;7.1;;
15498;SDS011;7851;52.260;6.030;2023-07-31T03:55:57;11.2;;;6.9;;
15498;SDS011;7851;52.260;6.030;2023-07-31T03:56:58;11.9;;;7.2;;
15498;SDS011;7851;52.260;6.030;2023-07-31T03:57:57;9.3;;;6.1;;
15498;SDS011;7851;52.260;6.030;2023-07-31T03:58:57;15.9;;;7;;
15498;SDS011;7851;52.260;6.030;2023-07-31T03:59:57;9;;;6.5;;
15498;SDS011;7851;52.260;6.030;2023-07-31T04:00:57;13.3;;;6.6;;
15498;SDS011;7851;52.260;6.030;2023-07-31T04:01:57;10.7;;;6.9;;
15498;SDS011;7851;52.260;6.030;2023-07-31T04:02:57;10.7;;;6.6;;
15498;SDS011;7851;52.260;6.030;2023-07-31T04:03:57;11;;;7.5;;
15498;SDS011;7851;52.260;6.030;2023-07-31T04:04:57;17.9;;;7.2;;
15498;SDS011;7851;52.260;6.030;2023-07-31T04:05:57;9;;;7;;
15498;SDS011;7851;52.260;6.030;2023-07-31T04:06:57;12.1;;;7;;
15498;SDS011;7851;52.260;6.030;2023-07-31T04:07:57;11.7;;;7.4;;
15498;SDS011;7851;52.260;6.030;2023-07-31T04:08:57;11.9;;;7.1;;
15498;SDS011;7851;52.260;6.030;2023-07-31T04:09:57;11.2;;;7.4;;
15498;SDS011;7851;52.260;6.030;2023-07-31T04:10:58;11.2;;;7.2;;
15498;SDS011;7851;52.260;6.030;2023-07-31T04:11:57;9.4;;;6.5;;
15498;SDS011;7851;52.260;6.030;2023-07-31T04:12:57;15.4;;;7.1;;
15498;SDS011;7851;52.260;6.030;2023-07-31T04:13:57;14.7;;;7.7;;
15498;SDS011;7851;52.260;6.030;2023-07-31T04:14:57;13.1;;;7.6;;
15498;SDS011;7851;52.260;6.030;2023-07-31T04:15:57;11.2;;;7.1;;
15498;SDS011;7851;52.260;6.030;2023-07-31T04:16:57;16.3;;;7.6;;
15498;SDS011;7851;52.260;6.030;2023-07-31T04:17:57;16.3;;;6.9;;
15498;SDS011;7851;52.260;6.030;2023-07-31T04:18:57;10.9;;;7.3;;
15498;SDS011;7851;52.260;6.030;2023-07-31T04:19:57;15.7;;;7.6;;
15498;SDS011;7851;52.260;6.030;2023-07-31T04:20:57;13.5;;;7.6;;
15498;SDS011;7851;52.260;6.030;2023-07-31T04:21:57;12.1;;;7.7;;
15498;SDS011;7851;52.260;6.030;2023-07-31T04:22:57;9.3;;;6.9;;
15498;SDS011;7851;52.260;6.030;2023-07-31T04:23:57;13.6;;;7.4;;
15498;SDS011;7851;52.260;6.030;2023-07-31T04:24:57;13.3;;;7.6;;
15498;SDS011;7851;52.260;6.030;2023-07-31T04:25:57;11.8;;;6.9;;
15498;SDS011;7851;52.260;6.030;2023-07-31T04:26:57;11.1;;;7.6;;
15498;SDS011;7851;52.260;6.030;2023-07-31T04:27:57;16;;;6.8;;
15498;SDS011;7851;52.260;6.030;2023-07-31T04:28:57;10.3;;;7.1;;
15498;SDS011;7851;52.260;6.030;2023-07-31T04:29:57;15.9;;;7.2;;
15498;SDS011;7851;52.260;6.030;2023-07-31T04:30:57;10.9;;;7.6;;
15498;SDS011;7851;52.260;6.030;2023-07-31T04:31:57;9.8;;;7.1;;
15498;SDS011;7851;52.260;6.030;2023-07-31T04:32:57;11.7;;;6.9;;
15498;SDS011;7851;52.260;6.030;2023-07-31T04:33:57;16.2;;;8.2;;
15498;SDS011;7851;52.260;6.030;2023-07-31T04:34:57;22.5;;;7.8;;
15498;SDS011;7851;52.260;6.030;2023-07-31T04:35:57;10.4;;;7.1;;
15498;SDS011;7851;52.260;6.030;2023-07-31T04:36:57;11.4;;;6.6;;
15498;SDS011;7851;52.260;6.030;2023-07-31T04:37:57;10.4;;;6.7;;
15498;SDS011;7851;52.260;6.030;2023-07-31T04:38:57;12.5;;;6.9;;
15498;SDS011;7851;52.260;6.030;2023-07-31T04:39:57;11.8;;;7.3;;
15498;SDS011;7851;52.260;6.030;2023-07-31T04:40:57;11.1;;;7.1;;
15498;SDS011;7851;52.260;6.030;2023-07-31T04:41:57;17;;;8.3;;
15498;SDS011;7851;52.260;6.030;2023-07-31T04:42:57;17.6;;;7.3;;
15498;SDS011;7851;52.260;6.030;2023-07-31T04:43:57;9.5;;;7.3;;
15498;SDS011;7851;52.260;6.030;2023-07-31T04:44:57;11.2;;;7.3;;
15498;SDS011;7851;52.260;6.030;2023-07-31T04:45:57;13.1;;;7.2;;
15498;SDS011;7851;52.260;6.030;2023-07-31T04:46:57;17.4;;;7.4;;
15498;SDS011;7851;52.260;6.030;2023-07-31T04:47:57;12.4;;;6.9;;
15498;SDS011;7851;52.260;6.030;2023-07-31T04:48:57;13.7;;;8;;
15498;SDS011;7851;52.260;6.030;2023-07-31T04:49:57;12.9;;;7.2;;
15498;SDS011;7851;52.260;6.030;2023-07-31T04:50:57;11.1;;;7.3;;
15498;SDS011;7851;52.260;6.030;2023-07-31T04:51:57;16.6;;;7.8;;
15498;SDS011;7851;52.260;6.030;2023-07-31T04:52:57;11.1;;;7.3;;
15498;SDS011;7851;52.260;6.030;2023-07-31T04:53:57;19.8;;;8.1;;
15498;SDS011;7851;52.260;6.030;2023-07-31T04:54:57;17.4;;;8.2;;
15498;SDS011;7851;52.260;6.030;2023-07-31T04:55:57;19.7;;;8.3;;
15498;SDS011;7851;52.260;6.030;2023-07-31T04:56:57;10.6;;;7.8;;
15498;SDS011;7851;52.260;6.030;2023-07-31T04:57:57;18.4;;;7.8;;
15498;SDS011;7851;52.260;6.030;2023-07-31T04:58:57;11.8;;;7.4;;
15498;SDS011;7851;52.260;6.030;2023-07-31T04:59:57;13.9;;;7.5;;
15498;SDS011;7851;52.260;6.030;2023-07-31T05:00:57;16.1;;;7.4;;
15498;SDS011;7851;52.260;6.030;2023-07-31T05:01:57;12.2;;;7.4;;
15498;SDS011;7851;52.260;6.030;2023-07-31T05:02:57;10.5;;;7.4;;
15498;SDS011;7851;52.260;6.030;2023-07-31T05:03:57;15.9;;;7.5;;
15498;SDS011;7851;52.260;6.030;2023-07-31T05:04:57;13.6;;;7.5;;
15498;SDS011;7851;52.260;6.030;2023-07-31T05:05:57;11.4;;;7.6;;
15498;SDS011;7851;52.260;6.030;2023-07-31T05:06:57;10.3;;;6.8;;
15498;SDS011;7851;52.260;6.030;2023-07-31T05:07:57;11;;;7.3;;
15498;SDS011;7851;52.260;6.030;2023-07-31T05:08:57;8.5;;;7;;
15498;SDS011;7851;52.260;6.030;2023-07-31T05:09:57;17.2;;;8;;
15498;SDS011;7851;52.260;6.030;2023-07-31T05:10:57;13.5;;;7.4;;
15498;SDS011;7851;52.260;6.030;2023-07-31T05:11:57;18.8;;;8.1;;
15498;SDS011;7851;52.260;6.030;2023-07-31T05:12:57;12.5;;;7.6;;
15498;SDS011;7851;52.260;6.030;2023-07-31T05:13:57;15.2;;;7.7;;
15498;SDS011;7851;52.260;6.030;2023-07-31T05:14:57;23.9;;;7.9;;
15498;SDS011;7851;52.260;6.030;2023-07-31T05:15:57;10.8;;;7.5;;
15498;SDS011;7851;52.260;6.030;2023-07-31T05:16:57;16.1;;;12.6;;
15498;SDS011;7851;52.260;6.030;2023-07-31T05:17:57;21.3;;;15.9;;
15498;SDS011;7851;52.260;6.030;2023-07-31T05:18:57;23.3;;;17.2;;
15498;SDS011;7851;52.260;6.030;2023-07-31T05:19:57;19.4;;;17.5;;
15498;SDS011;7851;52.260;6.030;2023-07-31T05:20:57;18.1;;;16.4;;
15498;SDS011;7851;52.260;6.030;2023-07-31T05:21:57;17.1;;;15.6;;
15498;SDS011;7851;52.260;6.030;2023-07-31T05:22:57;15.2;;;13.7;;
15498;SDS011;7851;52.260;6.030;2023-07-31T05:23:57;14.4;;;12.9;;
15498;SDS011;7851;52.260;6.030;2023-07-31T05:24:57;16.2;;;9.6;;
15498;SDS011;7851;52.260;6.030;2023-07-31T05:26:02;19.8;;;8.8;;
15498;SDS011;7851;52.260;6.030;2023-07-31T05:26:57;15.4;;;8.2;;
15498;SDS011;7851;52.260;6.030;2023-07-31T05:27:57;10.8;;;7.9;;
15498;SDS011;7851;52.260;6.030;2023-07-31T05:28:57;9.3;;;7;;
15498;SDS011;7851;52.260;6.030;2023-07-31T05:29:57;8.9;;;6.9;;
15498;SDS011;7851;52.260;6.030;2023-07-31T05:30:58;10.3;;;6.9;;
15498;SDS011;7851;52.260;6.030;2023-07-31T05:31:57;14.6;;;7.7;;
15498;SDS011;7851;52.260;6.030;2023-07-31T05:32:57;8.8;;;6.6;;
15498;SDS011;7851;52.260;6.030;2023-07-31T05:33:57;9.7;;;7.2;;
15498;SDS011;7851;52.260;6.030;2023-07-31T05:34:57;13.6;;;6.7;;
15498;SDS011;7851;52.260;6.030;2023-07-31T05:35:57;10.9;;;7.3;;
15498;SDS011;7851;52.260;6.030;2023-07-31T05:36:57;16.6;;;8.2;;
15498;SDS011;7851;52.260;6.030;2023-07-31T05:37:57;13.8;;;7.2;;
15498;SDS011;7851;52.260;6.030;2023-07-31T05:38:57;11;;;7.4;;
15498;SDS011;7851;52.260;6.030;2023-07-31T05:39:57;11.6;;;7.7;;
15498;SDS011;7851;52.260;6.030;2023-07-31T05:40:57;12.3;;;7.8;;
15498;SDS011;7851;52.260;6.030;2023-07-31T05:41:57;16.6;;;7.1;;
15498;SDS011;7851;52.260;6.030;2023-07-31T05:42:57;11;;;7;;
15498;SDS011;7851;52.260;6.030;2023-07-31T05:43:57;13;;;7.1;;
15498;SDS011;7851;52.260;6.030;2023-07-31T05:44:57;11.7;;;6.9;;
15498;SDS011;7851;52.260;6.030;2023-07-31T05:45:57;16.9;;;7.2;;
15498;SDS011;7851;52.260;6.030;2023-07-31T05:46:57;16.8;;;7.5;;
15498;SDS011;7851;52.260;6.030;2023-07-31T05:47:57;9.3;;;7;;
15498;SDS011;7851;52.260;6.030;2023-07-31T05:48:57;14.5;;;8.5;;
15498;SDS011;7851;52.260;6.030;2023-07-31T05:49:57;8.3;;;6.3;;
15498;SDS011;7851;52.260;6.030;2023-07-31T05:50:57;11.4;;;7.1;;
15498;SDS011;7851;52.260;6.030;2023-07-31T05:51:57;14.4;;;7.1;;
15498;SDS011;7851;52.260;6.030;2023-07-31T05:52:57;7.8;;;6.4;;
15498;SDS011;7851;52.260;6.030;2023-07-31T05:53:57;11.9;;;6.3;;
15498;SDS011;7851;52.260;6.030;2023-07-31T05:54:57;12.2;;;7.2;;
15498;SDS011;7851;52.260;6.030;2023-07-31T05:55:57;9.6;;;6.6;;
15498;SDS011;7851;52.260;6.030;2023-07-31T05:56:57;11.8;;;6.2;;
15498;SDS011;7851;52.260;6.030;2023-07-31T05:57:57;10.9;;;6.6;;
15498;SDS011;7851;52.260;6.030;2023-07-31T05:58:57;9.2;;;6.1;;
15498;SDS011;7851;52.260;6.030;2023-07-31T05:59:57;9.8;;;6.6;;
15498;SDS011;7851;52.260;6.030;2023-07-31T06:00:57;7.4;;;5.9;;
15498;SDS011;7851;52.260;6.030;2023-07-31T06:01:57;9;;;7;;
15498;SDS011;7851;52.260;6.030;2023-07-31T06:02:57;11.6;;;6.7;;
15498;SDS011;7851;52.260;6.030;2023-07-31T06:03:57;8;;;6.5;;
15498;SDS011;7851;52.260;6.030;2023-07-31T06:04:57;9.2;;;6.2;;
15498;SDS011;7851;52.260;6.030;2023-07-31T06:05:57;9.1;;;6.3;;
15498;SDS011;7851;52.260;6.030;2023-07-31T06:06:57;11.9;;;6.4;;
15498;SDS011;7851;52.260;6.030;2023-07-31T06:07:57;13.6;;;6.2;;
15498;SDS011;7851;52.260;6.030;2023-07-31T06:08:57;11.2;;;5.8;;
15498;SDS011;7851;52.260;6.030;2023-07-31T06:09:57;9.8;;;6;;
15498;SDS011;7851;52.260;6.030;2023-07-31T06:10:57;7.5;;;6.1;;
15498;SDS011;7851;52.260;6.030;2023-07-31T06:11:57;8.3;;;6;;
15498;SDS011;7851;52.260;6.030;2023-07-31T06:12:57;11.9;;;6.2;;
15498;SDS011;7851;52.260;6.030;2023-07-31T06:13:57;12.6;;;6.3;;
15498;SDS011;7851;52.260;6.030;2023-07-31T06:14:57;12.7;;;6;;
15498;SDS011;7851;52.260;6.030;2023-07-31T06:15:57;10.7;;;6.3;;
15498;SDS011;7851;52.260;6.030;2023-07-31T06:16:57;16.4;;;7.1;;
15498;SDS011;7851;52.260;6.030;2023-07-31T06:17:57;10.1;;;6.1;;
15498;SDS011;7851;52.260;6.030;2023-07-31T06:18:57;7.3;;;5.9;;